Weather at Munich Airport

Public forecast

Using degrees Celsius for public forecast. Weather courtesy of forecast.io.

Current aviation weather report (METAR) for Munich Airport

Retrieved 2022/05/19 09:20 UTC (6 minutes ago):

EDDM 190920Z VRB03KT CAVOK 22/12 Q1023 BECMG 21005KT

Aviation forecast (TAF) for Munich Airport

Retrieved 2022/05/19 06:27 UTC (3 hours ago):

TAF EDDM 190500Z 1906/2012 08005KT CAVOK BECMG 1909/1911 25006KT BECMG 1916/1918 VRB03KT PROB30 TEMPO 1919/1921 27012KT -TSRA SCT070CB BECMG 2004/2006 22005KT